sensor_id;sensor_type;location;lat;lon;timestamp;pressure;altitude;pressure_sealevel;temperature;humidity
74895;BME280;63447;49.446;8.666;2022-10-16T00:00:35;100204.47;;;16.14;86.44
74895;BME280;63447;49.446;8.666;2022-10-16T00:03:04;100206.09;;;16.15;86.40
74895;BME280;63447;49.446;8.666;2022-10-16T00:05:37;100200.47;;;16.11;87.06
74895;BME280;63447;49.446;8.666;2022-10-16T00:08:05;100215.19;;;16.12;86.64
74895;BME280;63447;49.446;8.666;2022-10-16T00:10:31;100209.25;;;16.13;87.18
74895;BME280;63447;49.446;8.666;2022-10-16T00:12:56;100193.72;;;16.12;86.49
74895;BME280;63447;49.446;8.666;2022-10-16T00:15:24;100207.31;;;16.17;86.82
74895;BME280;63447;49.446;8.666;2022-10-16T00:17:49;100205.63;;;16.09;87.32
74895;BME280;63447;49.446;8.666;2022-10-16T00:20:17;100204.47;;;16.14;86.73
74895;BME280;63447;49.446;8.666;2022-10-16T00:22:42;100205.25;;;16.11;86.63
74895;BME280;63447;49.446;8.666;2022-10-16T00:25:07;100207.59;;;16.09;86.80
74895;BME280;63447;49.446;8.666;2022-10-16T00:27:33;100201.69;;;16.14;86.89
74895;BME280;63447;49.446;8.666;2022-10-16T00:30:01;100182.69;;;15.93;86.88
74895;BME280;63447;49.446;8.666;2022-10-16T00:32:26;100215.97;;;16.09;86.82
74895;BME280;63447;49.446;8.666;2022-10-16T00:34:52;100212.38;;;16.08;87.25
74895;BME280;63447;49.446;8.666;2022-10-16T00:37:20;100208.06;;;16.14;86.76
74895;BME280;63447;49.446;8.666;2022-10-16T00:39:45;100203.25;;;16.11;86.78
74895;BME280;63447;49.446;8.666;2022-10-16T00:42:18;100217.66;;;16.17;86.13
74895;BME280;63447;49.446;8.666;2022-10-16T00:44:51;100208.50;;;16.16;86.39
74895;BME280;63447;49.446;8.666;2022-10-16T00:47:29;100216.44;;;16.14;86.58
74895;BME280;63447;49.446;8.666;2022-10-16T00:50:00;100212.38;;;16.08;86.58
74895;BME280;63447;49.446;8.666;2022-10-16T00:52:27;100220.38;;;16.13;86.42
74895;BME280;63447;49.446;8.666;2022-10-16T00:54:53;100207.91;;;16.04;86.98
74895;BME280;63447;49.446;8.666;2022-10-16T00:57:22;100213.28;;;16.16;86.75
74895;BME280;63447;49.446;8.666;2022-10-16T00:59:48;100225.63;;;16.18;86.08
74895;BME280;63447;49.446;8.666;2022-10-16T01:02:15;100219.53;;;16.09;86.18
74895;BME280;63447;49.446;8.666;2022-10-16T01:04:46;100235.28;;;16.24;86.33
74895;BME280;63447;49.446;8.666;2022-10-16T01:07:40;100224.09;;;16.21;86.35
74895;BME280;63447;49.446;8.666;2022-10-16T01:13:18;100230.34;;;16.14;86.93
74895;BME280;63447;49.446;8.666;2022-10-16T01:15:53;100234.78;;;16.19;86.16
74895;BME280;63447;49.446;8.666;2022-10-16T01:18:46;100224.84;;;16.18;86.22
74895;BME280;63447;49.446;8.666;2022-10-16T01:21:19;100216.44;;;16.14;86.93
74895;BME280;63447;49.446;8.666;2022-10-16T01:26:42;100228.59;;;16.29;86.01
74895;BME280;63447;49.446;8.666;2022-10-16T01:32:38;100230.72;;;16.13;86.50
74895;BME280;63447;49.446;8.666;2022-10-16T01:35:07;100211.88;;;16.03;86.53
74895;BME280;63447;49.446;8.666;2022-10-16T01:40:12;100234.72;;;16.15;86.43
74895;BME280;63447;49.446;8.666;2022-10-16T01:42:42;100220.22;;;16.03;87.00
74895;BME280;63447;49.446;8.666;2022-10-16T01:45:13;100230.72;;;16.13;86.90
74895;BME280;63447;49.446;8.666;2022-10-16T01:47:41;100241.22;;;16.23;86.10
74895;BME280;63447;49.446;8.666;2022-10-16T01:50:09;100237.88;;;16.14;86.56
74895;BME280;63447;49.446;8.666;2022-10-16T01:52:39;100249.09;;;16.17;86.34
74895;BME280;63447;49.446;8.666;2022-10-16T01:55:08;100238.69;;;16.14;86.64
74895;BME280;63447;49.446;8.666;2022-10-16T01:57:37;100227.72;;;15.99;86.63
74895;BME280;63447;49.446;8.666;2022-10-16T02:00:07;100259.84;;;16.19;86.32
74895;BME280;63447;49.446;8.666;2022-10-16T02:02:34;100267.09;;;16.23;86.42
74895;BME280;63447;49.446;8.666;2022-10-16T02:05:21;100259.84;;;16.19;86.50
74895;BME280;63447;49.446;8.666;2022-10-16T02:07:51;100248.78;;;16.22;86.43
74895;BME280;63447;49.446;8.666;2022-10-16T02:10:19;100252.00;;;16.24;86.22
74895;BME280;63447;49.446;8.666;2022-10-16T02:12:50;100250.75;;;16.22;86.77
74895;BME280;63447;49.446;8.666;2022-10-16T02:15:18;100253.53;;;16.22;86.70
74895;BME280;63447;49.446;8.666;2022-10-16T02:17:44;100249.16;;;16.21;87.04
74895;BME280;63447;49.446;8.666;2022-10-16T02:20:09;100252.75;;;16.21;87.01
74895;BME280;63447;49.446;8.666;2022-10-16T02:22:39;100251.50;;;16.19;86.79
74895;BME280;63447;49.446;8.666;2022-10-16T02:25:10;100247.53;;;16.20;86.18
74895;BME280;63447;49.446;8.666;2022-10-16T02:30:19;100260.72;;;16.23;86.90
74895;BME280;63447;49.446;8.666;2022-10-16T02:32:47;100236.56;;;16.04;86.89
74895;BME280;63447;49.446;8.666;2022-10-16T02:35:17;100254.16;;;16.12;86.88
74895;BME280;63447;49.446;8.666;2022-10-16T02:37:43;100242.72;;;16.17;86.48
74895;BME280;63447;49.446;8.666;2022-10-16T02:40:10;100196.34;;;16.02;86.50
74895;BME280;63447;49.446;8.666;2022-10-16T02:42:38;100244.22;;;16.11;86.70
74895;BME280;63447;49.446;8.666;2022-10-16T02:45:07;100236.94;;;16.03;87.23
74895;BME280;63447;49.446;8.666;2022-10-16T02:47:33;100245.00;;;16.11;86.70
74895;BME280;63447;49.446;8.666;2022-10-16T02:49:59;100241.38;;;16.07;86.63
74895;BME280;63447;49.446;8.666;2022-10-16T02:52:24;100234.56;;;16.05;86.88
74895;BME280;63447;49.446;8.666;2022-10-16T02:54:50;100234.00;;;16.18;85.71
74895;BME280;63447;49.446;8.666;2022-10-16T02:57:15;100228.06;;;15.97;86.32
74895;BME280;63447;49.446;8.666;2022-10-16T02:59:43;100230.19;;;16.04;86.63
74895;BME280;63447;49.446;8.666;2022-10-16T03:02:09;100252.09;;;16.05;86.36
74895;BME280;63447;49.446;8.666;2022-10-16T03:04:35;100264.19;;;16.16;85.78
74895;BME280;63447;49.446;8.666;2022-10-16T03:07:00;100255.03;;;16.16;86.21
74895;BME280;63447;49.446;8.666;2022-10-16T03:09:30;100268.06;;;16.12;85.67
74895;BME280;63447;49.446;8.666;2022-10-16T03:11:55;100269.28;;;16.11;85.90
74895;BME280;63447;49.446;8.666;2022-10-16T03:14:21;100258.44;;;16.06;86.13
74895;BME280;63447;49.446;8.666;2022-10-16T03:16:46;100259.31;;;16.10;86.37
74895;BME280;63447;49.446;8.666;2022-10-16T03:19:12;100265.72;;;16.14;86.25
74895;BME280;63447;49.446;8.666;2022-10-16T03:21:39;100255.53;;;16.21;85.52
74895;BME280;63447;49.446;8.666;2022-10-16T03:24:05;100252.00;;;16.24;85.48
74895;BME280;63447;49.446;8.666;2022-10-16T03:26:30;100252.25;;;16.16;85.98
74895;BME280;63447;49.446;8.666;2022-10-16T03:28:55;100255.03;;;16.16;86.39
74895;BME280;63447;49.446;8.666;2022-10-16T03:31:23;100256.13;;;16.11;86.21
74895;BME280;63447;49.446;8.666;2022-10-16T03:33:48;100256.13;;;16.11;85.75
74895;BME280;63447;49.446;8.666;2022-10-16T03:36:16;100262.50;;;16.12;86.33
74895;BME280;63447;49.446;8.666;2022-10-16T03:38:41;100244.31;;;16.18;85.66
74895;BME280;63447;49.446;8.666;2022-10-16T03:41:07;100247.16;;;16.21;85.35
74895;BME280;63447;49.446;8.666;2022-10-16T03:43:33;100210.16;;;15.94;85.78
74895;BME280;63447;49.446;8.666;2022-10-16T03:45:58;100247.84;;;16.15;85.47
74895;BME280;63447;49.446;8.666;2022-10-16T03:48:26;100232.75;;;16.16;85.06
74895;BME280;63447;49.446;8.666;2022-10-16T03:50:52;100197.91;;;15.99;84.71
74895;BME280;63447;49.446;8.666;2022-10-16T03:53:17;100229.06;;;16.08;84.79
74895;BME280;63447;49.446;8.666;2022-10-16T03:55:43;100261.03;;;16.18;85.09
74895;BME280;63447;49.446;8.666;2022-10-16T03:58:09;100246.66;;;16.16;85.26
74895;BME280;63447;49.446;8.666;2022-10-16T04:00:40;100246.06;;;16.26;84.31
74895;BME280;63447;49.446;8.666;2022-10-16T04:03:05;100179.38;;;15.84;83.81
74895;BME280;63447;49.446;8.666;2022-10-16T04:05:31;100269.94;;;16.27;84.25
74895;BME280;63447;49.446;8.666;2022-10-16T04:07:56;100261.59;;;16.27;84.03
74895;BME280;63447;49.446;8.666;2022-10-16T04:10:24;100265.91;;;16.24;84.40
74895;BME280;63447;49.446;8.666;2022-10-16T04:12:49;100277.91;;;16.28;84.75
74895;BME280;63447;49.446;8.666;2022-10-16T04:15:14;100279.47;;;16.26;84.89
74895;BME280;63447;49.446;8.666;2022-10-16T04:17:40;100257.81;;;16.16;84.44
74895;BME280;63447;49.446;8.666;2022-10-16T04:20:05;100284.66;;;16.27;84.70
74895;BME280;63447;49.446;8.666;2022-10-16T04:22:31;100278.66;;;16.25;85.11
74895;BME280;63447;49.446;8.666;2022-10-16T04:24:56;100283.41;;;16.25;84.77
74895;BME280;63447;49.446;8.666;2022-10-16T04:27:24;100284.22;;;16.25;85.14
74895;BME280;63447;49.446;8.666;2022-10-16T04:29:49;100261.41;;;16.16;84.42
74895;BME280;63447;49.446;8.666;2022-10-16T04:32:14;100283.34;;;16.21;84.17
74895;BME280;63447;49.446;8.666;2022-10-16T04:34:45;100286.50;;;16.20;84.36
74895;BME280;63447;49.446;8.666;2022-10-16T04:37:12;100302.28;;;16.35;83.97
74895;BME280;63447;49.446;8.666;2022-10-16T04:39:40;100291.53;;;16.34;83.65
74895;BME280;63447;49.446;8.666;2022-10-16T04:42:06;100279.69;;;16.40;83.55
74895;BME280;63447;49.446;8.666;2022-10-16T04:44:33;100284.50;;;16.43;83.27
74895;BME280;63447;49.446;8.666;2022-10-16T04:47:01;100269.13;;;16.26;84.08
74895;BME280;63447;49.446;8.666;2022-10-16T04:49:26;100283.41;;;16.25;83.43
74895;BME280;63447;49.446;8.666;2022-10-16T04:51:51;100278.28;;;16.27;83.41
74895;BME280;63447;49.446;8.666;2022-10-16T04:54:21;100299.50;;;16.35;83.33
74895;BME280;63447;49.446;8.666;2022-10-16T04:56:48;100284.44;;;16.40;83.03
74895;BME280;63447;49.446;8.666;2022-10-16T04:59:17;100293.94;;;16.35;83.19
74895;BME280;63447;49.446;8.666;2022-10-16T05:01:45;100295.88;;;16.31;83.28
74895;BME280;63447;49.446;8.666;2022-10-16T05:04:11;100291.47;;;16.30;83.18
74895;BME280;63447;49.446;8.666;2022-10-16T05:06:37;100276.09;;;16.40;82.94
74895;BME280;63447;49.446;8.666;2022-10-16T05:09:06;100262.69;;;16.22;83.06
74895;BME280;63447;49.446;8.666;2022-10-16T05:11:32;100273.22;;;16.33;83.65
74895;BME280;63447;49.446;8.666;2022-10-16T05:13:57;100282.44;;;16.37;82.66
74895;BME280;63447;49.446;8.666;2022-10-16T05:16:23;100296.34;;;16.37;82.49
74895;BME280;63447;49.446;8.666;2022-10-16T05:18:48;100301.06;;;16.33;82.76
74895;BME280;63447;49.446;8.666;2022-10-16T05:21:20;100295.06;;;16.31;83.02
74895;BME280;63447;49.446;8.666;2022-10-16T05:23:45;100285.16;;;16.33;82.68
74895;BME280;63447;49.446;8.666;2022-10-16T05:26:11;100287.81;;;16.26;83.49
74895;BME280;63447;49.446;8.666;2022-10-16T05:28:36;100290.59;;;16.26;82.76
74895;BME280;63447;49.446;8.666;2022-10-16T05:31:06;100284.22;;;16.25;83.02
74895;BME280;63447;49.446;8.666;2022-10-16T05:33:32;100275.56;;;16.31;82.78
74895;BME280;63447;49.446;8.666;2022-10-16T05:36:01;100271.97;;;16.30;82.76
74895;BME280;63447;49.446;8.666;2022-10-16T05:38:27;100276.75;;;16.29;82.42
74895;BME280;63447;49.446;8.666;2022-10-16T05:40:53;100259.84;;;16.19;82.21
74895;BME280;63447;49.446;8.666;2022-10-16T05:43:19;100282.16;;;16.45;81.87
74895;BME280;63447;49.446;8.666;2022-10-16T05:45:44;100253.50;;;16.45;80.94
74895;BME280;63447;49.446;8.666;2022-10-16T05:48:09;100259.72;;;16.35;81.46
74895;BME280;63447;49.446;8.666;2022-10-16T05:50:37;100273.28;;;16.36;81.64
74895;BME280;63447;49.446;8.666;2022-10-16T05:53:02;100264.75;;;16.25;81.99
74895;BME280;63447;49.446;8.666;2022-10-16T05:55:28;100288.84;;;16.41;81.64
74895;BME280;63447;49.446;8.666;2022-10-16T05:57:58;100271.97;;;16.30;81.74
74895;BME280;63447;49.446;8.666;2022-10-16T06:00:26;100300.59;;;16.53;81.01
74895;BME280;63447;49.446;8.666;2022-10-16T06:02:51;100327.28;;;16.54;81.49
74895;BME280;63447;49.446;8.666;2022-10-16T06:05:17;100330.63;;;16.63;80.29
74895;BME280;63447;49.446;8.666;2022-10-16T06:07:42;100317.50;;;16.64;80.90
74895;BME280;63447;49.446;8.666;2022-10-16T06:10:08;100310.25;;;16.59;81.71
74895;BME280;63447;49.446;8.666;2022-10-16T06:12:36;100306.47;;;16.48;82.52
74895;BME280;63447;49.446;8.666;2022-10-16T06:15:01;100316.56;;;16.56;82.41
74895;BME280;63447;49.446;8.666;2022-10-16T06:17:26;100311.97;;;16.45;82.30
74895;BME280;63447;49.446;8.666;2022-10-16T06:19:52;100274.50;;;16.16;82.46
74895;BME280;63447;49.446;8.666;2022-10-16T06:22:17;100331.41;;;16.41;82.86
74895;BME280;63447;49.446;8.666;2022-10-16T06:24:45;100307.53;;;16.40;82.39
74895;BME280;63447;49.446;8.666;2022-10-16T06:27:11;100334.03;;;16.53;81.46
74895;BME280;63447;49.446;8.666;2022-10-16T06:29:36;100317.00;;;16.58;80.84
74895;BME280;63447;49.446;8.666;2022-10-16T06:32:06;100323.31;;;16.55;81.79
74895;BME280;63447;49.446;8.666;2022-10-16T06:34:32;100332.53;;;16.59;81.27
74895;BME280;63447;49.446;8.666;2022-10-16T06:36:57;100327.88;;;16.67;81.59
74895;BME280;63447;49.446;8.666;2022-10-16T06:39:22;100321.69;;;16.54;81.16
74895;BME280;63447;49.446;8.666;2022-10-16T06:41:48;100337.06;;;16.68;80.94
74895;BME280;63447;49.446;8.666;2022-10-16T06:44:13;100326.78;;;16.72;81.69
74895;BME280;63447;49.446;8.666;2022-10-16T06:46:45;100341.13;;;16.74;81.37
74895;BME280;63447;49.446;8.666;2022-10-16T06:49:12;100335.63;;;16.77;80.67
74895;BME280;63447;49.446;8.666;2022-10-16T06:51:45;100331.16;;;16.73;80.53
74895;BME280;63447;49.446;8.666;2022-10-16T06:54:15;100334.69;;;16.70;80.63
74895;BME280;63447;49.446;8.666;2022-10-16T06:56:40;100354.66;;;16.98;80.29
74895;BME280;63447;49.446;8.666;2022-10-16T06:59:06;100332.66;;;16.67;80.94
74895;BME280;63447;49.446;8.666;2022-10-16T07:01:31;100358.28;;;16.76;82.11
74895;BME280;63447;49.446;8.666;2022-10-16T07:04:00;100363.84;;;16.76;82.27
74895;BME280;63447;49.446;8.666;2022-10-16T07:06:33;100376.63;;;16.77;82.54
74895;BME280;63447;49.446;8.666;2022-10-16T07:09:02;100388.19;;;16.79;82.13
74895;BME280;63447;49.446;8.666;2022-10-16T07:11:30;100375.00;;;16.76;82.38
74895;BME280;63447;49.446;8.666;2022-10-16T07:13:55;100357.41;;;16.72;81.56
74895;BME280;63447;49.446;8.666;2022-10-16T07:16:23;100381.88;;;16.82;82.32
74895;BME280;63447;49.446;8.666;2022-10-16T07:18:49;100383.19;;;16.88;81.56
74895;BME280;63447;49.446;8.666;2022-10-16T07:21:20;100406.13;;;17.04;81.07
74895;BME280;63447;49.446;8.666;2022-10-16T07:23:50;100413.78;;;17.11;80.67
74895;BME280;63447;49.446;8.666;2022-10-16T07:26:16;100397.81;;;17.08;80.74
74895;BME280;63447;49.446;8.666;2022-10-16T07:28:43;100415.13;;;17.20;81.48
74895;BME280;63447;49.446;8.666;2022-10-16T07:31:12;100417.25;;;17.30;81.09
74895;BME280;63447;49.446;8.666;2022-10-16T07:33:40;100415.28;;;17.31;80.25
74895;BME280;63447;49.446;8.666;2022-10-16T07:36:07;100420.16;;;17.38;80.59
74895;BME280;63447;49.446;8.666;2022-10-16T07:38:34;100418.97;;;17.39;79.09
74895;BME280;63447;49.446;8.666;2022-10-16T07:41:04;100424.19;;;17.40;79.67
74895;BME280;63447;49.446;8.666;2022-10-16T07:43:30;100431.13;;;17.53;79.32
74895;BME280;63447;49.446;8.666;2022-10-16T07:45:58;100397.41;;;17.36;78.06
74895;BME280;63447;49.446;8.666;2022-10-16T07:48:27;100435.91;;;17.53;78.24
74895;BME280;63447;49.446;8.666;2022-10-16T07:50:59;100451.53;;;17.57;77.56
74895;BME280;63447;49.446;8.666;2022-10-16T07:53:25;100452.47;;;17.69;77.46
74895;BME280;63447;49.446;8.666;2022-10-16T07:55:50;100439.72;;;17.68;78.10
74895;BME280;63447;49.446;8.666;2022-10-16T07:58:16;100422.75;;;17.53;77.13
74895;BME280;63447;49.446;8.666;2022-10-16T08:00:41;100437.03;;;17.75;76.66
74895;BME280;63447;49.446;8.666;2022-10-16T08:03:10;100436.47;;;17.92;76.18
74895;BME280;63447;49.446;8.666;2022-10-16T08:05:35;100448.69;;;18.14;76.88
74895;BME280;63447;49.446;8.666;2022-10-16T08:08:03;100446.22;;;18.09;75.83
74895;BME280;63447;49.446;8.666;2022-10-16T08:10:29;100442.97;;;18.03;76.08
74895;BME280;63447;49.446;8.666;2022-10-16T08:12:57;100462.13;;;18.05;75.50
74895;BME280;63447;49.446;8.666;2022-10-16T08:15:24;100460.78;;;18.25;75.29
74895;BME280;63447;49.446;8.666;2022-10-16T08:17:57;100453.84;;;18.12;75.14
74895;BME280;63447;49.446;8.666;2022-10-16T08:20:26;100467.47;;;18.17;76.00
74895;BME280;63447;49.446;8.666;2022-10-16T08:22:52;100466.63;;;18.13;75.49
74895;BME280;63447;49.446;8.666;2022-10-16T08:25:17;100475.44;;;18.15;75.38
74895;BME280;63447;49.446;8.666;2022-10-16T08:27:43;100447.69;;;17.99;75.44
74895;BME280;63447;49.446;8.666;2022-10-16T08:30:13;100460.53;;;18.04;75.75
74895;BME280;63447;49.446;8.666;2022-10-16T08:32:38;100417.13;;;17.76;75.87
74895;BME280;63447;49.446;8.666;2022-10-16T08:35:04;100455.78;;;18.08;75.77
74895;BME280;63447;49.446;8.666;2022-10-16T08:37:31;100473.81;;;18.14;75.75
74895;BME280;63447;49.446;8.666;2022-10-16T08:39:56;100475.00;;;18.13;75.88
74895;BME280;63447;49.446;8.666;2022-10-16T08:50:10;100477.31;;;18.78;73.97
74895;BME280;63447;49.446;8.666;2022-10-16T08:52:40;100479.06;;;18.93;73.51
74895;BME280;63447;49.446;8.666;2022-10-16T08:55:08;100479.41;;;18.88;72.69
74895;BME280;63447;49.446;8.666;2022-10-16T08:57:44;100492.28;;;18.96;73.17
74895;BME280;63447;49.446;8.666;2022-10-16T09:00:13;100497.47;;;18.97;73.29
74895;BME280;63447;49.446;8.666;2022-10-16T09:05:25;100528.66;;;19.44;71.31
74895;BME280;63447;49.446;8.666;2022-10-16T09:08:26;100579.66;;;19.71;70.95
74895;BME280;63447;49.446;8.666;2022-10-16T09:11:12;100593.03;;;19.47;72.46
74895;BME280;63447;49.446;8.666;2022-10-16T09:13:55;100601.91;;;19.12;73.73
74895;BME280;63447;49.446;8.666;2022-10-16T09:16:36;100584.69;;;19.10;73.72
74895;BME280;63447;49.446;8.666;2022-10-16T09:19:23;100570.31;;;19.12;71.78
74895;BME280;63447;49.446;8.666;2022-10-16T09:21:53;100563.59;;;19.64;70.51
74895;BME280;63447;49.446;8.666;2022-10-16T09:24:25;100567.88;;;20.06;69.52
74895;BME280;63447;49.446;8.666;2022-10-16T09:26:51;100567.00;;;19.94;69.72
74895;BME280;63447;49.446;8.666;2022-10-16T09:29:18;100566.59;;;19.92;68.27
74895;BME280;63447;49.446;8.666;2022-10-16T09:31:50;100566.50;;;20.44;67.16
74895;BME280;63447;49.446;8.666;2022-10-16T09:34:31;100563.25;;;20.38;65.61
74895;BME280;63447;49.446;8.666;2022-10-16T09:37:01;100556.28;;;20.11;65.49
74895;BME280;63447;49.446;8.666;2022-10-16T09:39:47;100568.28;;;20.08;67.27
74895;BME280;63447;49.446;8.666;2022-10-16T09:42:17;100561.72;;;20.55;64.81
74895;BME280;63447;49.446;8.666;2022-10-16T09:44:47;100551.84;;;21.04;62.98
74895;BME280;63447;49.446;8.666;2022-10-16T09:47:18;100565.50;;;21.69;61.78
74895;BME280;63447;49.446;8.666;2022-10-16T09:49:55;100564.66;;;20.94;62.03
74895;BME280;63447;49.446;8.666;2022-10-16T09:52:23;100553.78;;;22.13;58.84
74895;BME280;63447;49.446;8.666;2022-10-16T09:57:16;100555.47;;;21.04;60.97
74895;BME280;63447;49.446;8.666;2022-10-16T10:02:19;100567.28;;;20.41;63.67
74895;BME280;63447;49.446;8.666;2022-10-16T10:04:50;100575.81;;;20.73;63.85
74895;BME280;63447;49.446;8.666;2022-10-16T10:07:26;100567.38;;;20.65;63.39
74895;BME280;63447;49.446;8.666;2022-10-16T10:09:56;100567.34;;;20.58;63.24
74895;BME280;63447;49.446;8.666;2022-10-16T10:12:29;100560.16;;;20.64;63.69
74895;BME280;63447;49.446;8.666;2022-10-16T10:14:58;100577.41;;;20.74;63.29
74895;BME280;63447;49.446;8.666;2022-10-16T10:17:31;100568.13;;;20.48;63.98
74895;BME280;63447;49.446;8.666;2022-10-16T10:20:15;100563.00;;;20.82;63.33
74895;BME280;63447;49.446;8.666;2022-10-16T10:22:48;100581.91;;;21.03;63.09
74895;BME280;63447;49.446;8.666;2022-10-16T10:31:04;100563.06;;;21.11;62.69
74895;BME280;63447;49.446;8.666;2022-10-16T10:33:39;100580.38;;;21.52;60.97
74895;BME280;63447;49.446;8.666;2022-10-16T10:41:39;100571.53;;;21.36;61.56
74895;BME280;63447;49.446;8.666;2022-10-16T10:44:51;100568.56;;;22.39;58.44
74895;BME280;63447;49.446;8.666;2022-10-16T10:53:16;100554.59;;;23.60;53.99
74895;BME280;63447;49.446;8.666;2022-10-16T10:56:39;100559.38;;;23.63;53.82
74895;BME280;63447;49.446;8.666;2022-10-16T11:06:44;100537.41;;;25.14;49.72
74895;BME280;63447;49.446;8.666;2022-10-16T11:09:17;100546.59;;;25.91;47.97
74895;BME280;63447;49.446;8.666;2022-10-16T11:11:44;100549.38;;;25.21;49.90
74895;BME280;63447;49.446;8.666;2022-10-16T11:14:30;100544.81;;;26.41;46.50
74895;BME280;63447;49.446;8.666;2022-10-16T11:24:53;100548.03;;;29.17;39.16
74895;BME280;63447;49.446;8.666;2022-10-16T11:27:33;100554.00;;;28.56;40.53
74895;BME280;63447;49.446;8.666;2022-10-16T11:30:02;100554.38;;;28.00;41.74
74895;BME280;63447;49.446;8.666;2022-10-16T11:32:35;100534.53;;;28.13;41.83
74895;BME280;63447;49.446;8.666;2022-10-16T11:35:17;100547.31;;;26.15;46.49
74895;BME280;63447;49.446;8.666;2022-10-16T11:37:46;100556.44;;;26.46;44.59
74895;BME280;63447;49.446;8.666;2022-10-16T11:40:22;100545.97;;;26.99;44.19
74895;BME280;63447;49.446;8.666;2022-10-16T11:43:21;100537.59;;;28.89;40.13
74895;BME280;63447;49.446;8.666;2022-10-16T11:45:53;100522.34;;;29.46;38.35
74895;BME280;63447;49.446;8.666;2022-10-16T11:51:05;100514.09;;;27.76;41.38
74895;BME280;63447;49.446;8.666;2022-10-16T11:53:59;100529.34;;;30.01;36.75
74895;BME280;63447;49.446;8.666;2022-10-16T11:56:28;100522.19;;;29.37;37.12
74895;BME280;63447;49.446;8.666;2022-10-16T12:01:36;100542.59;;;25.19;47.84
74895;BME280;63447;49.446;8.666;2022-10-16T12:07:03;100550.78;;;24.49;51.39
74895;BME280;63447;49.446;8.666;2022-10-16T12:09:37;100555.94;;;23.86;51.47
74895;BME280;63447;49.446;8.666;2022-10-16T12:12:03;100529.69;;;23.48;53.50
74895;BME280;63447;49.446;8.666;2022-10-16T12:19:25;100547.50;;;22.86;55.56
74895;BME280;63447;49.446;8.666;2022-10-16T12:21:55;100548.00;;;22.59;55.59
74895;BME280;63447;49.446;8.666;2022-10-16T12:24:34;100542.31;;;22.66;55.40
74895;BME280;63447;49.446;8.666;2022-10-16T12:27:04;100525.56;;;22.49;56.31
74895;BME280;63447;49.446;8.666;2022-10-16T12:29:34;100544.03;;;22.46;55.96
74895;BME280;63447;49.446;8.666;2022-10-16T12:32:00;100538.63;;;21.82;57.20
74895;BME280;63447;49.446;8.666;2022-10-16T12:39:55;100522.88;;;22.20;57.19
74895;BME280;63447;49.446;8.666;2022-10-16T12:42:31;100532.34;;;22.58;55.91
74895;BME280;63447;49.446;8.666;2022-10-16T12:44:58;100533.97;;;22.52;55.37
74895;BME280;63447;49.446;8.666;2022-10-16T12:49:55;100521.16;;;22.44;55.40
74895;BME280;63447;49.446;8.666;2022-10-16T12:55:01;100523.66;;;22.24;55.81
74895;BME280;63447;49.446;8.666;2022-10-16T13:08:26;100521.47;;;23.23;53.99
74895;BME280;63447;49.446;8.666;2022-10-16T13:13:59;100529.06;;;23.29;53.45
74895;BME280;63447;49.446;8.666;2022-10-16T13:16:50;100534.03;;;23.11;53.53
74895;BME280;63447;49.446;8.666;2022-10-16T13:19:33;100547.53;;;22.72;55.08
74895;BME280;63447;49.446;8.666;2022-10-16T13:27:55;100553.47;;;21.72;58.43
74895;BME280;63447;49.446;8.666;2022-10-16T13:30:25;100559.50;;;21.60;58.97
74895;BME280;63447;49.446;8.666;2022-10-16T13:35:34;100534.63;;;21.62;59.45
74895;BME280;63447;49.446;8.666;2022-10-16T13:38:13;100551.50;;;21.23;60.51
74895;BME280;63447;49.446;8.666;2022-10-16T13:43:50;100551.09;;;21.24;61.29
74895;BME280;63447;49.446;8.666;2022-10-16T13:46:23;100529.78;;;20.95;61.52
74895;BME280;63447;49.446;8.666;2022-10-16T13:49:13;100557.09;;;21.26;60.83
74895;BME280;63447;49.446;8.666;2022-10-16T13:51:39;100557.03;;;21.12;61.59
74895;BME280;63447;49.446;8.666;2022-10-16T13:54:11;100556.66;;;21.10;61.63
74895;BME280;63447;49.446;8.666;2022-10-16T13:56:38;100529.78;;;20.95;62.74
74895;BME280;63447;49.446;8.666;2022-10-16T13:59:06;100520.97;;;21.14;62.24
74895;BME280;63447;49.446;8.666;2022-10-16T14:01:53;100525.78;;;21.17;62.40
74895;BME280;63447;49.446;8.666;2022-10-16T14:04:31;100534.59;;;21.12;62.21
74895;BME280;63447;49.446;8.666;2022-10-16T14:07:01;100537.78;;;20.89;63.00
74895;BME280;63447;49.446;8.666;2022-10-16T14:09:29;100536.56;;;20.83;62.96
74895;BME280;63447;49.446;8.666;2022-10-16T14:12:00;100559.44;;;20.92;62.87
74895;BME280;63447;49.446;8.666;2022-10-16T14:14:53;100549.41;;;20.88;62.80
74895;BME280;63447;49.446;8.666;2022-10-16T14:17:18;100549.41;;;20.91;63.05
74895;BME280;63447;49.446;8.666;2022-10-16T14:19:46;100547.81;;;20.97;63.17
74895;BME280;63447;49.446;8.666;2022-10-16T14:22:35;100545.00;;;20.97;63.29
74895;BME280;63447;49.446;8.666;2022-10-16T14:27:43;100551.81;;;20.93;63.48
74895;BME280;63447;49.446;8.666;2022-10-16T14:30:12;100559.81;;;20.91;62.73
74895;BME280;63447;49.446;8.666;2022-10-16T14:32:41;100550.19;;;20.81;63.31
74895;BME280;63447;49.446;8.666;2022-10-16T14:35:40;100563.81;;;20.76;64.25
74895;BME280;63447;49.446;8.666;2022-10-16T14:38:18;100544.06;;;20.40;65.32
74895;BME280;63447;49.446;8.666;2022-10-16T14:40:47;100552.78;;;20.31;65.94
74895;BME280;63447;49.446;8.666;2022-10-16T14:43:22;100549.97;;;20.28;66.15
74895;BME280;63447;49.446;8.666;2022-10-16T14:45:53;100540.66;;;20.06;66.92
74895;BME280;63447;49.446;8.666;2022-10-16T14:48:20;100545.53;;;20.16;66.93
74895;BME280;63447;49.446;8.666;2022-10-16T14:50:46;100535.00;;;19.92;67.18
74895;BME280;63447;49.446;8.666;2022-10-16T14:53:15;100536.13;;;19.84;67.96
74895;BME280;63447;49.446;8.666;2022-10-16T14:55:46;100548.13;;;19.84;67.31
74895;BME280;63447;49.446;8.666;2022-10-16T14:58:22;100540.13;;;19.83;67.12